Time,TemperatureF,DewpointF,PressureIn,WindDirection,WindDirectionDegrees,WindSpeedMPH,WindSpeedGustMPH,Humidity,HourlyPrecipIn,Conditions,Clouds,dailyrainin,SoftwareType,DateUTC
2013-03-30 00:00:00,38.6,36.2,30.04,ESE,112,1.0,6.0,91,0.02,,SKC,0.00,VWS V14.01,2013-03-30 05:00:00,
2013-03-30 00:06:00,38.6,36.0,30.04,ESE,108,0.0,-999.0,91,-99.99,,,0.01,weatherlink.com 1.10,2013-03-30 05:06:00,
2013-03-30 00:21:00,38.6,36.0,30.04,ESE,116,0.0,-999.0,91,-99.99,,,0.01,weatherlink.com 1.10,2013-03-30 05:21:00,
2013-03-30 00:30:00,38.7,36.6,30.03,ESE,112,1.0,6.0,92,0.02,,SKC,0.01,VWS V14.01,2013-03-30 05:30:00,
2013-03-30 00:36:00,38.7,36.0,30.03,ESE,111,2.0,-999.0,91,-99.99,,,0.01,weatherlink.com 1.10,2013-03-30 05:36:00,
2013-03-30 00:51:00,38.6,37.0,30.02,ESE,107,0.0,-999.0,92,-99.99,,,0.02,weatherlink.com 1.10,2013-03-30 05:51:00,
2013-03-30 01:00:00,38.6,36.5,30.02,ESE,112,2.0,9.0,92,0.02,,SKC,0.02,VWS V14.01,2013-03-30 06:00:00,
2013-03-30 01:07:00,38.6,37.0,30.02,SE,124,0.0,-999.0,92,-99.99,,,0.02,weatherlink.com 1.10,2013-03-30 06:07:00,
2013-03-30 01:22:00,38.4,36.0,30.01,SE,136,6.0,-999.0,92,-99.99,,,0.03,weatherlink.com 1.10,2013-03-30 06:22:00,
2013-03-30 01:30:00,38.4,36.6,30.01,ESE,112,4.0,9.0,93,0.03,,SKC,0.03,VWS V14.01,2013-03-30 06:30:00,
2013-03-30 01:37:00,38.6,37.0,30.00,SE,136,10.0,-999.0,92,-99.99,,,0.03,weatherlink.com 1.10,2013-03-30 06:37:00,
2013-03-30 01:52:00,38.8,36.0,29.98,ESE,109,6.0,-999.0,91,-99.99,,,0.04,weatherlink.com 1.10,2013-03-30 06:52:00,
2013-03-30 02:00:00,38.8,36.4,29.97,ESE,112,7.0,15.0,91,0.03,,SKC,0.04,VWS V14.01,2013-03-30 07:00:00,
2013-03-30 02:07:00,38.8,37.0,29.97,SE,145,6.0,-999.0,92,-99.99,,,0.04,weatherlink.com 1.10,2013-03-30 07:07:00,
2013-03-30 02:22:00,38.8,36.0,29.96,ESE,113,6.0,-999.0,91,-99.99,,,0.04,weatherlink.com 1.10,2013-03-30 07:22:00,
2013-03-30 02:30:00,38.8,36.4,29.96,ESE,112,6.0,12.0,91,0.02,,SKC,0.04,VWS V14.01,2013-03-30 07:30:00,
2013-03-30 02:37:00,38.8,36.0,29.95,ESE,121,5.0,-999.0,91,-99.99,,,0.04,weatherlink.com 1.10,2013-03-30 07:37:00,
2013-03-30 02:52:00,39.1,37.0,29.95,SSE,151,2.0,-999.0,90,-99.99,,,0.04,weatherlink.com 1.10,2013-03-30 07:52:00,
2013-03-30 03:00:00,39.2,36.2,29.96,ESE,112,5.0,11.0,89,0.01,,SKC,0.04,VWS V14.01,2013-03-30 08:00:00,
2013-03-30 03:07:00,39.4,37.0,29.96,ESE,121,13.0,-999.0,89,-99.99,,,0.04,weatherlink.com 1.10,2013-03-30 08:07:00,
2013-03-30 03:22:00,39.3,36.0,29.95,SE,128,5.0,-999.0,89,-99.99,,,0.06,weatherlink.com 1.10,2013-03-30 08:22:00,
2013-03-30 03:30:00,39.3,36.6,29.95,SE,135,4.0,13.0,90,0.03,,SKC,0.07,VWS V14.01,2013-03-30 08:30:00,
2013-03-30 03:37:00,39.1,37.0,29.95,ESE,123,4.0,-999.0,91,-99.99,,,0.07,weatherlink.com 1.10,2013-03-30 08:37:00,
2013-03-30 03:52:00,39.0,37.0,29.93,ESE,119,5.0,-999.0,91,-99.99,,,0.08,weatherlink.com 1.10,2013-03-30 08:52:00,
2013-03-30 04:00:00,38.9,36.5,29.93,ESE,112,3.0,10.0,91,0.05,,SKC,0.09,VWS V14.01,2013-03-30 09:00:00,
2013-03-30 04:07:00,38.8,36.0,29.93,SE,126,2.0,-999.0,91,-99.99,,,0.10,weatherlink.com 1.10,2013-03-30 09:07:00,
2013-03-30 04:22:00,38.6,37.0,29.93,SE,134,8.0,-999.0,92,-99.99,,,0.13,weatherlink.com 1.10,2013-03-30 09:22:00,
2013-03-30 04:30:00,38.5,36.7,29.89,SE,135,2.0,15.0,93,0.14,,SKC,0.18,VWS V14.01,2013-03-30 09:30:00,
2013-03-30 04:37:00,38.5,37.0,29.90,ESE,123,6.0,-999.0,93,-99.99,,,0.21,weatherlink.com 1.10,2013-03-30 09:37:00,
2013-03-30 05:00:00,38.4,36.6,29.89,ESE,112,4.0,16.0,93,0.14,,SKC,0.21,VWS V14.01,2013-03-30 10:00:00,
2013-03-30 05:07:00,38.3,37.0,29.88,ESE,118,5.0,-999.0,93,-99.99,,,0.21,weatherlink.com 1.10,2013-03-30 10:07:00,
2013-03-30 05:22:00,38.4,37.0,29.88,ESE,105,1.0,-999.0,94,-99.99,,,0.22,weatherlink.com 1.10,2013-03-30 10:22:00,
2013-03-30 05:30:00,38.4,36.8,29.88,ESE,112,1.0,7.0,94,0.13,,SKC,0.22,VWS V14.01,2013-03-30 10:30:00,
2013-03-30 05:37:00,38.4,37.0,29.87,ESE,109,1.0,-999.0,94,-99.99,,,0.22,weatherlink.com 1.10,2013-03-30 10:37:00,
2013-03-30 05:52:00,38.4,37.0,29.86,ESE,121,0.0,-999.0,94,-99.99,,,0.22,weatherlink.com 1.10,2013-03-30 10:52:00,
2013-03-30 06:00:00,38.4,36.8,29.86,ESE,112,1.0,8.0,94,0.04,,SKC,0.22,VWS V14.01,2013-03-30 11:00:00,
2013-03-30 06:07:00,38.4,37.0,29.86,ESE,115,4.0,-999.0,94,-99.99,,,0.22,weatherlink.com 1.10,2013-03-30 11:07:00,
2013-03-30 06:22:00,38.4,37.0,29.85,ESE,105,6.0,-999.0,95,-99.99,,,0.23,weatherlink.com 1.10,2013-03-30 11:22:00,
2013-03-30 06:30:00,38.5,37.2,29.85,ESE,112,2.0,9.0,95,0.03,,SKC,0.24,VWS V14.01,2013-03-30 11:30:00,
2013-03-30 06:37:00,38.6,37.0,29.86,SE,144,4.0,-999.0,94,-99.99,,,0.26,weatherlink.com 1.10,2013-03-30 11:37:00,
2013-03-30 06:52:00,38.6,37.0,29.85,SE,125,0.0,-999.0,95,-99.99,,,0.32,weatherlink.com 1.10,2013-03-30 11:52:00,
2013-03-30 07:00:00,38.6,37.3,29.85,SE,135,2.0,8.0,95,0.12,,SKC,0.34,VWS V14.01,2013-03-30 12:00:00,
2013-03-30 07:07:00,38.7,37.0,29.84,South,175,2.0,-999.0,95,-99.99,,,0.37,weatherlink.com 1.10,2013-03-30 12:07:00,
2013-03-30 07:22:00,38.6,37.0,29.84,SSE,153,0.0,-999.0,95,-99.99,,,0.38,weatherlink.com 1.10,2013-03-30 12:22:00,
2013-03-30 07:30:00,38.6,37.3,29.84,ESE,112,3.0,11.0,95,0.17,,SKC,0.39,VWS V14.01,2013-03-30 12:30:00,
2013-03-30 07:37:00,38.6,37.0,29.83,SE,130,2.0,-999.0,95,-99.99,,,0.41,weatherlink.com 1.10,2013-03-30 12:37:00,
2013-03-30 07:52:00,38.6,37.0,29.84,SE,129,0.0,-999.0,95,-99.99,,,0.43,weatherlink.com 1.10,2013-03-30 12:52:00,
2013-03-30 08:00:00,38.6,37.3,29.83,ESE,112,1.0,9.0,95,0.20,,SKC,0.44,VWS V14.01,2013-03-30 13:00:00,
2013-03-30 08:07:00,38.6,37.0,29.84,SSE,160,0.0,-999.0,95,-99.99,,,0.45,weatherlink.com 1.10,2013-03-30 13:07:00,
2013-03-30 08:22:00,38.5,37.0,29.84,SSE,160,0.0,-999.0,95,-99.99,,,0.46,weatherlink.com 1.10,2013-03-30 13:22:00,
2013-03-30 08:30:00,38.4,37.4,29.84,SSE,158,0.0,5.0,96,0.13,,SKC,0.47,VWS V14.01,2013-03-30 13:30:00,
2013-03-30 08:37:00,38.5,38.0,29.85,West,275,0.0,-999.0,96,-99.99,,,0.47,weatherlink.com 1.10,2013-03-30 13:37:00,
2013-03-30 08:52:00,38.3,37.0,29.84,West,275,0.0,-999.0,96,-99.99,,,0.47,weatherlink.com 1.10,2013-03-30 13:52:00,
2013-03-30 09:00:00,38.2,37.2,29.84,West,270,0.0,1.0,96,0.08,,SKC,0.47,VWS V14.01,2013-03-30 14:00:00,
2013-03-30 09:07:00,38.2,37.0,29.84,West,275,0.0,-999.0,96,-99.99,,,0.47,weatherlink.com 1.10,2013-03-30 14:07:00,
2013-03-30 09:22:00,39.3,39.0,29.84,West,275,0.0,-999.0,97,-99.99,,,0.47,weatherlink.com 1.10,2013-03-30 14:22:00,
2013-03-30 09:30:00,39.7,38.9,29.84,West,270,0.0,0.0,97,0.04,,SKC,0.48,VWS V14.01,2013-03-30 14:30:00,
2013-03-30 09:37:00,40.1,39.0,29.84,West,275,0.0,-999.0,97,-99.99,,,0.48,weatherlink.com 1.10,2013-03-30 14:37:00,
2013-03-30 09:52:00,40.3,39.0,29.84,NW,315,6.0,-999.0,96,-99.99,,,0.48,weatherlink.com 1.10,2013-03-30 14:52:00,
2013-03-30 10:00:00,40.2,39.2,29.84,West,270,1.0,8.0,96,0.01,,SKC,0.48,VWS V14.01,2013-03-30 15:00:00,
2013-03-30 10:07:00,40.0,39.0,29.84,WNW,296,0.0,-999.0,95,-99.99,,,0.48,weatherlink.com 1.10,2013-03-30 15:07:00,
2013-03-30 10:22:00,40.1,39.0,29.84,West,272,0.0,-999.0,95,-99.99,,,0.48,weatherlink.com 1.10,2013-03-30 15:22:00,
2013-03-30 10:30:00,40.1,38.8,29.84,West,270,1.0,8.0,95,0.01,,SKC,0.48,VWS V14.01,2013-03-30 15:30:00,
2013-03-30 10:37:00,40.4,39.0,29.84,West,272,0.0,-999.0,95,-99.99,,,0.48,weatherlink.com 1.10,2013-03-30 15:37:00,
2013-03-30 10:52:00,40.8,39.0,29.84,West,268,0.0,-999.0,94,-99.99,,,0.48,weatherlink.com 1.10,2013-03-30 15:52:00,
2013-03-30 11:00:00,41.3,40.0,29.84,West,270,1.0,5.0,95,0.00,,SKC,0.48,VWS V14.01,2013-03-30 16:00:00,
2013-03-30 11:07:00,41.6,40.0,29.84,NW,308,1.0,-999.0,93,-99.99,,,0.48,weatherlink.com 1.10,2013-03-30 16:07:00,
2013-03-30 11:23:00,43.1,41.0,29.84,NW,314,1.0,-999.0,92,-99.99,,,0.48,weatherlink.com 1.10,2013-03-30 16:23:00,
2013-03-30 11:30:00,43.7,41.0,29.84,NW,315,1.0,6.0,90,0.00,,SKC,0.48,VWS V14.01,2013-03-30 16:30:00,
2013-03-30 11:38:00,44.1,41.0,29.85,West,277,0.0,-999.0,89,-99.99,,,0.48,weatherlink.com 1.10,2013-03-30 16:38:00,
2013-03-30 11:53:00,44.3,41.0,29.85,West,266,3.0,-999.0,89,-99.99,,,0.48,weatherlink.com 1.10,2013-03-30 16:53:00,
2013-03-30 12:00:00,44.3,41.0,29.85,West,270,0.0,6.0,88,0.00,,SKC,0.48,VWS V14.01,2013-03-30 17:00:00,
2013-03-30 12:08:00,44.6,41.0,29.85,NW,321,4.0,-999.0,87,-99.99,,,0.48,weatherlink.com 1.10,2013-03-30 17:08:00,
2013-03-30 12:23:00,45.1,42.0,29.84,WNW,292,4.0,-999.0,87,-99.99,,,0.48,weatherlink.com 1.10,2013-03-30 17:23:00,
2013-03-30 12:30:00,45.4,41.5,29.85,NW,315,1.0,6.0,86,0.00,,SKC,0.48,VWS V14.01,2013-03-30 17:30:00,
2013-03-30 12:38:00,45.6,41.0,29.84,WNW,287,1.0,-999.0,85,-99.99,,,0.48,weatherlink.com 1.10,2013-03-30 17:38:00,
2013-03-30 12:53:00,46.2,41.0,29.84,WNW,296,4.0,-999.0,83,-99.99,,,0.48,weatherlink.com 1.10,2013-03-30 17:53:00,
2013-03-30 13:00:00,46.4,41.5,29.84,NW,315,2.0,10.0,83,0.00,,SKC,0.48,VWS V14.01,2013-03-30 18:00:00,
2013-03-30 13:08:00,46.9,41.0,29.84,West,278,0.0,-999.0,81,-99.99,,,0.48,weatherlink.com 1.10,2013-03-30 18:08:00,
2013-03-30 13:23:00,47.9,42.0,29.84,West,263,1.0,-999.0,79,-99.99,,,0.48,weatherlink.com 1.10,2013-03-30 18:23:00,
2013-03-30 13:30:00,48.0,41.8,29.84,WNW,292,2.0,8.0,79,0.00,,SKC,0.48,VWS V14.01,2013-03-30 18:30:00,
2013-03-30 13:38:00,48.5,42.0,29.84,WNW,302,2.0,-999.0,78,-99.99,,,0.48,weatherlink.com 1.10,2013-03-30 18:38:00,
2013-03-30 13:53:00,49.0,42.0,29.83,West,281,0.0,-999.0,76,-99.99,,,0.48,weatherlink.com 1.10,2013-03-30 18:53:00,
2013-03-30 14:00:00,49.3,42.1,29.83,NW,315,2.0,8.0,76,0.00,,SKC,0.48,VWS V14.01,2013-03-30 19:00:00,
2013-03-30 14:08:00,49.4,42.0,29.84,West,281,0.0,-999.0,75,-99.99,,,0.48,weatherlink.com 1.10,2013-03-30 19:08:00,
2013-03-30 14:23:00,49.7,42.0,29.83,West,268,0.0,-999.0,74,-99.99,,,0.48,weatherlink.com 1.10,2013-03-30 19:23:00,
2013-03-30 14:30:00,49.8,41.9,29.83,West,270,2.0,8.0,74,0.00,,SKC,0.48,VWS V14.01,2013-03-30 19:30:00,
2013-03-30 14:38:00,49.8,42.0,29.83,NW,314,0.0,-999.0,74,-99.99,,,0.48,weatherlink.com 1.10,2013-03-30 19:38:00,
2013-03-30 14:53:00,50.2,42.0,29.83,West,259,0.0,-999.0,74,-99.99,,,0.48,weatherlink.com 1.10,2013-03-30 19:53:00,
2013-03-30 15:00:00,50.5,41.8,29.83,NW,315,2.0,9.0,72,0.00,,SKC,0.48,VWS V14.01,2013-03-30 20:00:00,
2013-03-30 15:08:00,50.7,42.0,29.83,SSW,211,3.0,-999.0,72,-99.99,,,0.48,weatherlink.com 1.10,2013-03-30 20:08:00,
2013-03-30 15:25:00,50.4,42.0,29.82,WNW,288,0.0,-999.0,72,-99.99,,,0.48,weatherlink.com 1.10,2013-03-30 20:25:00,
2013-03-30 15:30:00,50.3,41.6,29.82,West,270,2.0,12.0,72,0.00,,SKC,0.48,VWS V14.01,2013-03-30 20:30:00,
2013-03-30 15:38:00,50.4,42.0,29.82,NW,317,5.0,-999.0,72,-99.99,,,0.48,weatherlink.com 1.10,2013-03-30 20:38:00,
2013-03-30 15:53:00,50.3,41.0,29.82,NW,310,4.0,-999.0,71,-99.99,,,0.48,weatherlink.com 1.10,2013-03-30 20:53:00,
2013-03-30 16:00:00,50.2,41.2,29.82,WNW,292,2.0,8.0,71,0.00,,SKC,0.48,VWS V14.01,2013-03-30 21:00:00,
2013-03-30 16:09:00,50.1,41.0,29.82,WNW,292,1.0,-999.0,70,-99.99,,,0.48,weatherlink.com 1.10,2013-03-30 21:09:00,
2013-03-30 16:23:00,50.5,40.0,29.82,NW,311,1.0,-999.0,68,-99.99,,,0.48,weatherlink.com 1.10,2013-03-30 21:23:00,
2013-03-30 16:30:00,50.4,40.2,29.82,NW,315,2.0,8.0,68,0.00,,SKC,0.48,VWS V14.01,2013-03-30 21:30:00,
2013-03-30 16:38:00,50.5,40.0,29.82,West,262,1.0,-999.0,68,-99.99,,,0.48,weatherlink.com 1.10,2013-03-30 21:38:00,
2013-03-30 16:53:00,50.5,40.0,29.82,WSW,252,5.0,-999.0,67,-99.99,,,0.48,weatherlink.com 1.10,2013-03-30 21:53:00,
2013-03-30 17:00:00,50.3,39.8,29.82,West,270,2.0,9.0,67,0.00,,SKC,0.48,VWS V14.01,2013-03-30 22:00:00,
2013-03-30 17:08:00,50.0,39.0,29.82,WNW,302,2.0,-999.0,65,-99.99,,,0.48,weatherlink.com 1.10,2013-03-30 22:08:00,
2013-03-30 17:23:00,49.5,38.0,29.81,West,280,1.0,-999.0,65,-99.99,,,0.48,weatherlink.com 1.10,2013-03-30 22:23:00,
2013-03-30 17:30:00,49.5,37.8,29.81,NW,315,2.0,12.0,64,0.00,,SKC,0.48,VWS V14.01,2013-03-30 22:30:00,
2013-03-30 17:38:00,49.4,38.0,29.82,West,269,1.0,-999.0,65,-99.99,,,0.48,weatherlink.com 1.10,2013-03-30 22:38:00,
2013-03-30 17:53:00,49.0,39.0,29.81,West,279,9.0,-999.0,68,-99.99,,,0.48,weatherlink.com 1.10,2013-03-30 22:53:00,
2013-03-30 18:00:00,48.8,38.3,29.81,WNW,292,2.0,10.0,67,0.00,,SKC,0.48,VWS V14.01,2013-03-30 23:00:00,
2013-03-30 18:08:00,48.3,38.0,29.81,SW,227,1.0,-999.0,68,-99.99,,,0.48,weatherlink.com 1.10,2013-03-30 23:08:00,
2013-03-30 18:23:00,48.2,38.0,29.81,West,261,4.0,-999.0,67,-99.99,,,0.48,weatherlink.com 1.10,2013-03-30 23:23:00,
2013-03-30 18:30:00,48.0,37.6,29.81,West,270,2.0,9.0,67,0.00,,SKC,0.48,VWS V14.01,2013-03-30 23:30:00,
2013-03-30 18:38:00,47.6,37.0,29.81,WSW,254,1.0,-999.0,67,-99.99,,,0.48,weatherlink.com 1.10,2013-03-30 23:38:00,
2013-03-30 18:53:00,46.7,36.0,29.81,West,261,1.0,-999.0,67,-99.99,,,0.48,weatherlink.com 1.10,2013-03-30 23:53:00,
2013-03-30 19:00:00,46.5,36.2,29.81,West,270,1.0,7.0,67,0.00,,SKC,0.48,VWS V14.01,2013-03-31 00:00:00,
2013-03-30 19:08:00,46.1,36.0,29.81,West,269,0.0,-999.0,68,-99.99,,,0.48,weatherlink.com 1.10,2013-03-31 00:08:00,
2013-03-30 19:23:00,45.5,36.0,29.80,SW,229,0.0,-999.0,69,-99.99,,,0.48,weatherlink.com 1.10,2013-03-31 00:23:00,
2013-03-30 19:30:00,45.2,35.7,29.80,WSW,248,1.0,8.0,69,0.00,,SKC,0.48,VWS V14.01,2013-03-31 00:30:00,
2013-03-30 19:38:00,44.7,35.0,29.80,WSW,245,0.0,-999.0,70,-99.99,,,0.48,weatherlink.com 1.10,2013-03-31 00:38:00,
2013-03-30 19:53:00,44.0,35.0,29.80,WSW,251,3.0,-999.0,71,-99.99,,,0.48,weatherlink.com 1.10,2013-03-31 00:53:00,
2013-03-30 20:00:00,43.8,35.4,29.80,WSW,248,1.0,6.0,72,0.00,,SKC,0.48,VWS V14.01,2013-03-31 01:00:00,
2013-03-30 20:08:00,43.3,36.0,29.81,WSW,241,0.0,-999.0,74,-99.99,,,0.48,weatherlink.com 1.10,2013-03-31 01:08:00,
2013-03-30 20:23:00,42.6,36.0,29.81,WSW,256,2.0,-999.0,76,-99.99,,,0.48,weatherlink.com 1.10,2013-03-31 01:23:00,
2013-03-30 20:30:00,42.4,35.7,29.81,WSW,248,1.0,8.0,77,0.00,,SKC,0.48,VWS V14.01,2013-03-31 01:30:00,
2013-03-30 20:38:00,42.2,36.0,29.81,WSW,237,6.0,-999.0,78,-99.99,,,0.48,weatherlink.com 1.10,2013-03-31 01:38:00,
2013-03-30 20:53:00,41.9,36.0,29.82,WSW,244,0.0,-999.0,78,-99.99,,,0.48,weatherlink.com 1.10,2013-03-31 01:53:00,
2013-03-30 21:00:00,41.8,35.5,29.81,WSW,248,2.0,8.0,78,0.00,,SKC,0.48,VWS V14.01,2013-03-31 02:00:00,
2013-03-30 21:08:00,41.4,35.0,29.81,SW,234,6.0,-999.0,78,-99.99,,,0.48,weatherlink.com 1.10,2013-03-31 02:08:00,
2013-03-30 21:23:00,40.9,35.0,29.82,WSW,254,0.0,-999.0,78,-99.99,,,0.48,weatherlink.com 1.10,2013-03-31 02:23:00,
2013-03-30 21:30:00,40.7,34.4,29.82,WSW,248,1.0,7.0,78,0.00,,SKC,0.48,VWS V14.01,2013-03-31 02:30:00,
2013-03-30 21:39:00,40.5,34.0,29.82,WSW,254,1.0,-999.0,79,-99.99,,,0.48,weatherlink.com 1.10,2013-03-31 02:39:00,
2013-03-30 21:54:00,40.1,34.0,29.82,WNW,288,7.0,-999.0,78,-99.99,,,0.48,weatherlink.com 1.10,2013-03-31 02:54:00,
2013-03-30 22:00:00,39.9,33.9,29.83,West,270,1.0,10.0,79,0.00,,SKC,0.48,VWS V14.01,2013-03-31 03:00:00,
2013-03-30 22:09:00,39.6,34.0,29.82,WNW,297,2.0,-999.0,79,-99.99,,,0.48,weatherlink.com 1.10,2013-03-31 03:09:00,
2013-03-30 22:24:00,38.9,33.0,29.82,SW,235,7.0,-999.0,80,-99.99,,,0.48,weatherlink.com 1.10,2013-03-31 03:24:00,
2013-03-30 22:30:00,38.7,33.7,29.82,West,270,2.0,8.0,82,0.00,,SKC,0.48,VWS V14.01,2013-03-31 03:30:00,
2013-03-30 22:39:00,38.3,33.0,29.82,SW,223,0.0,-999.0,82,-99.99,,,0.48,weatherlink.com 1.10,2013-03-31 03:39:00,
2013-03-30 22:54:00,37.7,33.0,29.81,WSW,242,1.0,-999.0,84,-99.99,,,0.48,weatherlink.com 1.10,2013-03-31 03:54:00,
2013-03-30 23:00:00,37.6,33.2,29.82,WSW,248,1.0,8.0,84,0.00,,SKC,0.48,VWS V14.01,2013-03-31 04:00:00,
2013-03-30 23:09:00,37.3,33.0,29.81,West,262,2.0,-999.0,84,-99.99,,,0.48,weatherlink.com 1.10,2013-03-31 04:09:00,
2013-03-30 23:24:00,36.8,33.0,29.81,West,262,2.0,-999.0,85,-99.99,,,0.48,weatherlink.com 1.10,2013-03-31 04:24:00,
2013-03-30 23:30:00,36.6,32.5,29.81,West,270,2.0,8.0,85,0.00,,SKC,0.48,VWS V14.01,2013-03-31 04:30:00,
2013-03-30 23:39:00,36.3,33.0,29.81,West,263,0.0,-999.0,86,-99.99,,,0.48,weatherlink.com 1.10,2013-03-31 04:39:00,
2013-03-30 23:54:00,35.8,32.0,29.81,West,261,0.0,-999.0,86,-99.99,,,0.48,weatherlink.com 1.10,2013-03-31 04:54:00,